Time;durP1;ratioP1;P1;durP2;ratioP2;P2;SDS_P1;SDS_P2;PMS_P1;PMS_P2;Temp;Humidity;BMP_temperature;BMP_pressure;BME280_temperature;BME280_humidity;BME280_pressure;Samples;Min_cycle;Max_cycle;Signal;HPM_P1;HPM_P2
2023/03/18 00:01:46;;;;;;;124.05;7.40;;;;;;;;;;4946875;28;20575;-56
2023/03/18 00:04:12;;;;;;;126.00;8.48;;;;;;;;;;4947723;28;20477;-57
2023/03/18 00:06:37;;;;;;;116.25;6.72;;;;;;;;;;4948831;28;20645;-57
2023/03/18 00:09:03;;;;;;;139.30;8.48;;;;;;;;;;4947037;28;20023;-56
2023/03/18 00:11:29;;;;;;;126.85;7.90;;;;;;;;;;4946753;28;20027;-56
2023/03/18 00:13:54;;;;;;;120.43;7.38;;;;;;;;;;4947698;28;20085;-58
2023/03/18 00:16:20;;;;;;;116.13;7.57;;;;;;;;;;4948574;28;20787;-57
2023/03/18 00:18:45;;;;;;;141.02;8.02;;;;;;;;;;4947518;28;20034;-58
2023/03/18 00:21:11;;;;;;;103.90;7.40;;;;;;;;;;4946628;28;20161;-58
2023/03/18 00:23:37;;;;;;;129.68;8.02;;;;;;;;;;4948035;28;20054;-58
2023/03/18 00:26:03;;;;;;;122.43;8.18;;;;;;;;;;4948460;28;20130;-56
2023/03/18 00:28:30;;;;;;;143.27;8.38;;;;;;;;;;4945665;28;20019;-57
2023/03/18 00:31:00;;;;;;;115.57;6.45;;;;;;;;;;4951049;28;20027;-58
2023/03/18 00:33:25;;;;;;;120.00;7.68;;;;;;;;;;4950258;28;20081;-58
2023/03/18 00:35:51;;;;;;;101.40;7.00;;;;;;;;;;4951969;28;20043;-57
2023/03/18 00:38:20;;;;;;;105.35;7.40;;;;;;;;;;4951333;28;20263;-57
2023/03/18 00:40:52;;;;;;;111.57;6.93;;;;;;;;;;4951425;28;20043;-57
2023/03/18 00:43:21;;;;;;;100.65;7.45;;;;;;;;;;4950970;28;20039;-58
2023/03/18 00:45:48;;;;;;;132.45;8.50;;;;;;;;;;4950346;28;20042;-58
2023/03/18 00:48:13;;;;;;;112.20;8.50;;;;;;;;;;4952701;28;20564;-59
2023/03/18 00:50:38;;;;;;;132.82;8.32;;;;;;;;;;4949028;28;20039;-58
2023/03/18 00:53:04;;;;;;;156.73;9.00;;;;;;;;;;4951076;28;20015;-58
2023/03/18 00:55:29;;;;;;;115.38;8.35;;;;;;;;;;4949069;28;20093;-58
2023/03/18 00:57:54;;;;;;;126.47;8.60;;;;;;;;;;4950217;28;20054;-58
2023/03/18 01:00:20;;;;;;;128.43;8.48;;;;;;;;;;4950691;28;20023;-57
2023/03/18 01:02:48;;;;;;;113.95;7.65;;;;;;;;;;4951743;28;20078;-58
2023/03/18 01:05:13;;;;;;;125.75;8.38;;;;;;;;;;4949127;28;20030;-58
2023/03/18 01:07:40;;;;;;;99.22;7.63;;;;;;;;;;4953856;28;20031;-55
2023/03/18 01:10:06;;;;;;;125.40;8.48;;;;;;;;;;4952013;28;20011;-57
2023/03/18 01:12:32;;;;;;;169.07;9.38;;;;;;;;;;4949091;28;20035;-55
2023/03/18 01:14:58;;;;;;;141.15;8.85;;;;;;;;;;4950203;28;20036;-57
2023/03/18 01:17:23;;;;;;;115.28;7.80;;;;;;;;;;4948715;28;20051;-58
2023/03/18 01:19:48;;;;;;;131.05;8.05;;;;;;;;;;4950040;28;20090;-58
2023/03/18 01:22:13;;;;;;;114.90;7.68;;;;;;;;;;4949118;28;20475;-58
2023/03/18 01:24:39;;;;;;;133.32;8.70;;;;;;;;;;4949607;28;20061;-58
2023/03/18 01:27:05;;;;;;;131.55;8.45;;;;;;;;;;4948846;28;20057;-56
2023/03/18 01:29:30;;;;;;;133.38;8.82;;;;;;;;;;4949985;28;20023;-58
2023/03/18 01:31:55;;;;;;;127.90;8.30;;;;;;;;;;4950974;28;20036;-57
2023/03/18 01:34:20;;;;;;;109.45;7.43;;;;;;;;;;4950761;28;20022;-58
2023/03/18 01:36:46;;;;;;;97.60;7.38;;;;;;;;;;4950407;28;20039;-58
2023/03/18 01:39:12;;;;;;;111.53;7.85;;;;;;;;;;4950762;28;20030;-57
2023/03/18 01:41:39;;;;;;;127.78;8.23;;;;;;;;;;4950705;28;20046;-56
2023/03/18 01:44:06;;;;;;;112.38;8.02;;;;;;;;;;4950660;28;20078;-56
2023/03/18 01:46:33;;;;;;;124.07;8.07;;;;;;;;;;4949432;28;20031;-56
2023/03/18 01:48:59;;;;;;;116.80;8.00;;;;;;;;;;4949424;28;20027;-58
2023/03/18 01:51:25;;;;;;;140.95;8.63;;;;;;;;;;4947655;28;20031;-58
2023/03/18 01:53:51;;;;;;;84.72;6.90;;;;;;;;;;4949756;28;20030;-57
2023/03/18 01:56:17;;;;;;;124.07;8.02;;;;;;;;;;4950239;28;20042;-57
2023/03/18 01:58:45;;;;;;;119.78;8.10;;;;;;;;;;4949843;28;20601;-58
2023/03/18 02:01:30;;;;;;;142.07;8.70;;;;;;;;;;4950591;28;20050;-57
2023/03/18 02:03:56;;;;;;;102.95;7.18;;;;;;;;;;4951519;28;20026;-57
2023/03/18 02:06:22;;;;;;;109.88;8.55;;;;;;;;;;4950862;28;20039;-57
2023/03/18 02:08:48;;;;;;;139.68;9.05;;;;;;;;;;4948947;28;20050;-56
2023/03/18 02:11:14;;;;;;;135.55;8.65;;;;;;;;;;4949355;28;20110;-58
2023/03/18 02:13:41;;;;;;;107.50;7.78;;;;;;;;;;4950036;28;20022;-57
2023/03/18 02:16:13;;;;;;;117.90;7.85;;;;;;;;;;4948381;28;20038;-58
2023/03/18 02:18:50;;;;;;;121.30;7.47;;;;;;;;;;4950803;28;20031;-59
2023/03/18 02:21:22;;;;;;;123.30;7.80;;;;;;;;;;4950128;28;20118;-57
2023/03/18 02:23:47;;;;;;;103.43;7.00;;;;;;;;;;4948888;28;20035;-58
2023/03/18 02:26:43;;;;;;;138.03;8.27;;;;;;;;;;4949166;28;20054;-57
2023/03/18 02:29:11;;;;;;;140.13;9.30;;;;;;;;;;4949277;28;20258;-57
2023/03/18 02:31:36;;;;;;;115.05;7.32;;;;;;;;;;4948319;28;20039;-56
2023/03/18 02:34:04;;;;;;;124.78;7.68;;;;;;;;;;4950241;28;20034;-56
2023/03/18 02:36:30;;;;;;;111.85;7.10;;;;;;;;;;4948892;28;20035;-57
2023/03/18 02:38:57;;;;;;;117.07;7.25;;;;;;;;;;4949419;28;20031;-56
2023/03/18 02:41:23;;;;;;;138.32;8.00;;;;;;;;;;4949199;28;20045;-57
2023/03/18 02:43:49;;;;;;;111.82;6.80;;;;;;;;;;4950003;28;20062;-58
2023/03/18 02:46:20;;;;;;;96.55;7.07;;;;;;;;;;4948510;28;20484;-57
2023/03/18 02:48:47;;;;;;;109.32;7.43;;;;;;;;;;4949222;28;20019;-56
2023/03/18 02:51:13;;;;;;;110.13;7.38;;;;;;;;;;4947518;28;20038;-57
2023/03/18 02:53:40;;;;;;;117.72;7.63;;;;;;;;;;4948109;28;20050;-58
2023/03/18 02:56:06;;;;;;;122.47;7.38;;;;;;;;;;4949538;28;20425;-56
2023/03/18 02:58:31;;;;;;;121.55;7.28;;;;;;;;;;4949158;28;20029;-56
2023/03/18 03:00:56;;;;;;;149.48;9.30;;;;;;;;;;4947865;28;20416;-57
2023/03/18 03:03:22;;;;;;;134.98;8.65;;;;;;;;;;4950105;28;20049;-57
2023/03/18 03:05:47;;;;;;;137.40;8.38;;;;;;;;;;4949604;28;20090;-58
2023/03/18 03:08:14;;;;;;;120.90;8.05;;;;;;;;;;4947231;28;20020;-58
2023/03/18 03:10:39;;;;;;;122.70;8.73;;;;;;;;;;4948652;28;20523;-57
2023/03/18 03:13:06;;;;;;;145.48;9.35;;;;;;;;;;4947650;28;20027;-58
2023/03/18 03:15:31;;;;;;;121.85;8.40;;;;;;;;;;4949726;28;20027;-57
2023/03/18 03:17:57;;;;;;;124.47;8.50;;;;;;;;;;4950644;28;20409;-57
2023/03/18 03:20:22;;;;;;;122.13;8.38;;;;;;;;;;4948303;28;20034;-57
2023/03/18 03:22:48;;;;;;;114.82;8.57;;;;;;;;;;4948376;28;20532;-58
2023/03/18 03:25:13;;;;;;;128.45;8.43;;;;;;;;;;4947718;28;20109;-58
2023/03/18 03:27:40;;;;;;;119.97;8.25;;;;;;;;;;4946534;28;20410;-58
2023/03/18 03:30:06;;;;;;;127.47;8.35;;;;;;;;;;4947890;28;20026;-58
2023/03/18 03:32:31;;;;;;;108.30;7.78;;;;;;;;;;4947484;28;20046;-57
2023/03/18 03:34:57;;;;;;;86.90;7.50;;;;;;;;;;4949770;28;20027;-57
2023/03/18 03:37:22;;;;;;;107.72;7.78;;;;;;;;;;4948144;28;20046;-58
2023/03/18 03:39:47;;;;;;;131.35;9.18;;;;;;;;;;4947802;28;20038;-56
2023/03/18 03:42:13;;;;;;;121.15;8.70;;;;;;;;;;4948018;28;20039;-58
2023/03/18 03:44:39;;;;;;;82.35;6.95;;;;;;;;;;4949650;28;20383;-56
2023/03/18 03:47:05;;;;;;;121.88;8.65;;;;;;;;;;4947143;28;20668;-57
2023/03/18 03:49:30;;;;;;;129.82;8.88;;;;;;;;;;4950187;28;20109;-57
2023/03/18 03:51:56;;;;;;;138.15;9.23;;;;;;;;;;4945985;28;20321;-58
2023/03/18 03:54:22;;;;;;;111.60;8.45;;;;;;;;;;4947560;28;20429;-57
2023/03/18 03:56:47;;;;;;;99.55;7.60;;;;;;;;;;4947401;28;20066;-57
2023/03/18 03:59:12;;;;;;;129.90;8.55;;;;;;;;;;4946196;28;20100;-57
2023/03/18 04:01:38;;;;;;;110.30;8.30;;;;;;;;;;4946881;28;20355;-58
2023/03/18 04:04:03;;;;;;;124.30;8.38;;;;;;;;;;4947347;28;20329;-58
2023/03/18 04:06:29;;;;;;;142.95;9.20;;;;;;;;;;4947428;28;20506;-56
2023/03/18 04:08:54;;;;;;;126.95;8.25;;;;;;;;;;4949373;28;20396;-57
2023/03/18 04:11:20;;;;;;;130.98;8.70;;;;;;;;;;4948858;28;20085;-57
2023/03/18 04:13:45;;;;;;;110.07;8.27;;;;;;;;;;4949689;28;20107;-57
2023/03/18 04:16:10;;;;;;;137.30;9.10;;;;;;;;;;4946541;28;20047;-56
2023/03/18 04:18:35;;;;;;;157.18;9.73;;;;;;;;;;4947471;28;20027;-57
2023/03/18 04:21:01;;;;;;;121.97;8.55;;;;;;;;;;4946693;28;20077;-56
2023/03/18 04:23:26;;;;;;;113.80;8.13;;;;;;;;;;4945993;28;20031;-58
2023/03/18 04:25:52;;;;;;;132.75;9.23;;;;;;;;;;4945729;28;20043;-56
2023/03/18 04:28:17;;;;;;;106.30;8.32;;;;;;;;;;4946525;28;20127;-57
2023/03/18 04:30:42;;;;;;;107.45;7.88;;;;;;;;;;4947264;28;20039;-57
2023/03/18 04:33:08;;;;;;;117.05;7.65;;;;;;;;;;4947857;28;20086;-58
2023/03/18 04:35:34;;;;;;;91.95;7.35;;;;;;;;;;4948540;28;20125;-58
2023/03/18 04:37:59;;;;;;;157.35;9.73;;;;;;;;;;4946008;28;20106;-58
2023/03/18 04:40:24;;;;;;;110.70;8.70;;;;;;;;;;4947656;28;20027;-57
2023/03/18 04:42:50;;;;;;;116.32;8.20;;;;;;;;;;4947006;28;20031;-56
2023/03/18 04:45:15;;;;;;;111.28;8.40;;;;;;;;;;4947571;28;20526;-59
2023/03/18 04:47:41;;;;;;;121.47;8.38;;;;;;;;;;4948995;28;20031;-58
2023/03/18 04:50:09;;;;;;;137.05;8.95;;;;;;;;;;4948388;28;20024;-57
2023/03/18 04:52:35;;;;;;;103.28;8.10;;;;;;;;;;4945941;28;20620;-59
2023/03/18 04:55:00;;;;;;;99.25;7.38;;;;;;;;;;4947236;28;20363;-59
2023/03/18 04:57:26;;;;;;;148.52;9.20;;;;;;;;;;4949272;28;20059;-58
2023/03/18 04:59:51;;;;;;;111.00;7.88;;;;;;;;;;4947415;28;20027;-59
2023/03/18 05:02:17;;;;;;;159.82;9.95;;;;;;;;;;4946108;28;20102;-59
2023/03/18 05:04:42;;;;;;;132.50;9.20;;;;;;;;;;4946671;28;20552;-58
2023/03/18 05:07:11;;;;;;;135.27;9.10;;;;;;;;;;4945921;28;20126;-58
2023/03/18 05:09:36;;;;;;;138.40;8.98;;;;;;;;;;4947088;28;20663;-59
2023/03/18 05:12:01;;;;;;;130.88;8.68;;;;;;;;;;4945143;28;20043;-59
2023/03/18 05:14:27;;;;;;;124.03;8.52;;;;;;;;;;4947510;28;20063;-59
2023/03/18 05:16:53;;;;;;;111.97;8.57;;;;;;;;;;4951235;28;20482;-59
2023/03/18 05:19:18;;;;;;;104.97;9.88;;;;;;;;;;4951710;28;20035;-59
2023/03/18 05:21:44;;;;;;;180.38;14.10;;;;;;;;;;4947471;28;20118;-58
2023/03/18 05:24:09;;;;;;;125.05;9.90;;;;;;;;;;4949844;28;20023;-57
2023/03/18 05:26:34;;;;;;;107.47;8.60;;;;;;;;;;4948437;28;20425;-58
2023/03/18 05:29:00;;;;;;;123.68;8.70;;;;;;;;;;4951008;28;20098;-57
2023/03/18 05:31:25;;;;;;;109.00;8.15;;;;;;;;;;4950681;28;20398;-58
2023/03/18 05:33:51;;;;;;;110.45;8.20;;;;;;;;;;4948986;28;20081;-57
2023/03/18 05:36:17;;;;;;;139.82;9.32;;;;;;;;;;4950648;28;20039;-59
2023/03/18 05:38:42;;;;;;;129.65;8.90;;;;;;;;;;4951724;28;20086;-58
2023/03/18 05:41:08;;;;;;;147.35;9.70;;;;;;;;;;4950126;28;20035;-58
2023/03/18 05:43:33;;;;;;;120.65;8.30;;;;;;;;;;4949194;28;20053;-58
2023/03/18 05:45:58;;;;;;;107.27;8.17;;;;;;;;;;4949142;28;20077;-59
2023/03/18 05:48:24;;;;;;;121.57;8.57;;;;;;;;;;4950945;28;20389;-57
2023/03/18 05:50:50;;;;;;;118.00;8.48;;;;;;;;;;4950073;28;20138;-59
2023/03/18 05:53:16;;;;;;;136.98;9.02;;;;;;;;;;4950233;28;20114;-59
2023/03/18 05:55:42;;;;;;;150.05;9.85;;;;;;;;;;4948960;28;20033;-59
2023/03/18 05:58:07;;;;;;;118.50;10.45;;;;;;;;;;4951820;28;20486;-60
2023/03/18 06:00:33;;;;;;;127.30;9.52;;;;;;;;;;4949969;28;20058;-59
2023/03/18 06:02:59;;;;;;;133.85;10.05;;;;;;;;;;4950820;28;20566;-58
2023/03/18 06:05:24;;;;;;;96.93;8.55;;;;;;;;;;4950254;28;20042;-58
2023/03/18 06:07:51;;;;;;;131.38;9.07;;;;;;;;;;4950615;28;20468;-59
2023/03/18 06:10:16;;;;;;;119.70;8.93;;;;;;;;;;4949398;28;20396;-60
2023/03/18 06:12:43;;;;;;;142.68;9.45;;;;;;;;;;4949308;28;20019;-57
2023/03/18 06:15:09;;;;;;;137.65;9.38;;;;;;;;;;4948070;28;20031;-57
2023/03/18 06:17:35;;;;;;;112.28;8.07;;;;;;;;;;4949302;28;20027;-59
2023/03/18 06:20:00;;;;;;;86.97;7.60;;;;;;;;;;4950904;28;20026;-58
2023/03/18 06:22:26;;;;;;;153.10;9.68;;;;;;;;;;4950079;28;20050;-58
2023/03/18 06:24:52;;;;;;;133.13;9.40;;;;;;;;;;4950838;28;20545;-58
2023/03/18 06:27:17;;;;;;;126.45;8.90;;;;;;;;;;4948259;28;20035;-58
2023/03/18 06:29:43;;;;;;;111.00;8.50;;;;;;;;;;4949647;28;20061;-58
2023/03/18 06:32:08;;;;;;;109.80;8.30;;;;;;;;;;4950093;28;20035;-58
2023/03/18 06:34:35;;;;;;;133.40;8.82;;;;;;;;;;4949308;28;20031;-59
2023/03/18 06:37:00;;;;;;;129.75;9.18;;;;;;;;;;4949118;28;20035;-57
2023/03/18 06:39:27;;;;;;;113.50;8.43;;;;;;;;;;4949458;28;20353;-58
2023/03/18 06:41:53;;;;;;;125.35;8.45;;;;;;;;;;4948785;28;20082;-59
2023/03/18 06:44:19;;;;;;;141.68;9.55;;;;;;;;;;4949433;28;20019;-59
2023/03/18 06:46:45;;;;;;;119.30;8.98;;;;;;;;;;4948997;28;20571;-60
2023/03/18 06:49:11;;;;;;;96.32;8.00;;;;;;;;;;4947799;28;20089;-59
2023/03/18 06:51:36;;;;;;;117.35;8.93;;;;;;;;;;4948580;28;20028;-59
2023/03/18 06:54:02;;;;;;;122.95;8.85;;;;;;;;;;4947677;28;20027;-58
2023/03/18 06:56:27;;;;;;;144.63;9.55;;;;;;;;;;4948177;28;20067;-59
2023/03/18 06:58:53;;;;;;;92.33;7.57;;;;;;;;;;4947557;28;20030;-58
2023/03/18 07:01:19;;;;;;;113.30;9.00;;;;;;;;;;4948963;28;20274;-58
2023/03/18 07:03:45;;;;;;;141.32;9.57;;;;;;;;;;4949150;28;20971;-58
2023/03/18 07:06:10;;;;;;;145.23;8.40;;;;;;;;;;4948405;28;20045;-58
2023/03/18 07:08:35;;;;;;;107.68;7.97;;;;;;;;;;4949042;28;20038;-63
2023/03/18 07:11:02;;;;;;;107.25;8.10;;;;;;;;;;4947478;28;20190;-59
2023/03/18 07:13:27;;;;;;;111.40;8.02;;;;;;;;;;4947771;28;20290;-57
2023/03/18 07:15:55;;;;;;;107.95;8.43;;;;;;;;;;4948270;28;20078;-60
2023/03/18 07:18:20;;;;;;;127.85;9.18;;;;;;;;;;4948725;28;20007;-59
2023/03/18 07:20:45;;;;;;;106.28;8.63;;;;;;;;;;4948745;28;20027;-58
2023/03/18 07:23:11;;;;;;;107.60;8.90;;;;;;;;;;4948637;28;20437;-57
2023/03/18 07:25:36;;;;;;;89.53;7.50;;;;;;;;;;4948717;28;20304;-58
2023/03/18 07:28:03;;;;;;;112.57;8.77;;;;;;;;;;4948797;28;20275;-57
2023/03/18 07:30:29;;;;;;;103.15;8.65;;;;;;;;;;4945491;28;20354;-57
2023/03/18 07:32:54;;;;;;;127.95;9.18;;;;;;;;;;4946484;28;20145;-58
2023/03/18 07:35:19;;;;;;;123.85;8.98;;;;;;;;;;4947214;28;20046;-59
2023/03/18 07:37:45;;;;;;;109.43;9.15;;;;;;;;;;4948541;28;20454;-59
2023/03/18 07:40:10;;;;;;;105.78;8.38;;;;;;;;;;4946881;28;20107;-59
2023/03/18 07:42:36;;;;;;;118.80;8.68;;;;;;;;;;4946490;28;20054;-59
2023/03/18 07:45:02;;;;;;;135.18;9.07;;;;;;;;;;4946610;28;20023;-60
2023/03/18 07:47:27;;;;;;;130.73;9.68;;;;;;;;;;4946560;28;20041;-58
2023/03/18 07:49:52;;;;;;;94.40;8.60;;;;;;;;;;4947954;28;20065;-60
2023/03/18 07:52:17;;;;;;;150.00;10.03;;;;;;;;;;4945763;28;20314;-60
2023/03/18 07:54:43;;;;;;;140.27;9.90;;;;;;;;;;4947703;28;20469;-59
2023/03/18 07:57:09;;;;;;;107.57;8.65;;;;;;;;;;4945131;28;20904;-59
2023/03/18 07:59:34;;;;;;;96.13;8.40;;;;;;;;;;4949527;28;20020;-59
2023/03/18 08:02:00;;;;;;;102.50;8.40;;;;;;;;;;4943075;28;20251;-59
2023/03/18 08:04:25;;;;;;;96.03;8.52;;;;;;;;;;4948621;28;20058;-58
2023/03/18 08:06:50;;;;;;;91.07;8.27;;;;;;;;;;4950104;28;20082;-58
2023/03/18 08:09:16;;;;;;;84.65;7.80;;;;;;;;;;4950154;28;20027;-58
2023/03/18 08:11:42;;;;;;;100.45;8.65;;;;;;;;;;4950115;28;20242;-59
2023/03/18 08:14:07;;;;;;;94.22;7.97;;;;;;;;;;4949956;28;20102;-61
2023/03/18 08:16:32;;;;;;;81.03;7.27;;;;;;;;;;4948606;28;20553;-60
2023/03/18 08:18:57;;;;;;;77.53;7.80;;;;;;;;;;4949129;28;20815;-59
2023/03/18 08:21:23;;;;;;;91.40;8.03;;;;;;;;;;4948449;28;20631;-59
2023/03/18 08:23:48;;;;;;;119.45;9.25;;;;;;;;;;4947152;28;20629;-59
2023/03/18 08:26:14;;;;;;;82.45;8.55;;;;;;;;;;4946016;28;20493;-59
2023/03/18 08:28:39;;;;;;;84.17;7.70;;;;;;;;;;4948100;28;20016;-59
2023/03/18 08:31:04;;;;;;;81.93;7.60;;;;;;;;;;4949500;28;20268;-59
2023/03/18 08:33:29;;;;;;;91.28;8.18;;;;;;;;;;4951845;28;20023;-60
2023/03/18 08:35:56;;;;;;;89.83;8.33;;;;;;;;;;4949289;28;20035;-60
2023/03/18 08:38:22;;;;;;;83.40;8.13;;;;;;;;;;4948539;28;20764;-59
2023/03/18 08:40:48;;;;;;;101.22;8.55;;;;;;;;;;4947704;28;20035;-59
2023/03/18 08:43:13;;;;;;;104.80;8.80;;;;;;;;;;4948975;28;20031;-58
2023/03/18 08:45:38;;;;;;;87.82;7.90;;;;;;;;;;4949012;28;20038;-58
2023/03/18 08:48:06;;;;;;;80.78;7.80;;;;;;;;;;4957648;28;20569;-58
2023/03/18 08:50:31;;;;;;;101.50;8.15;;;;;;;;;;4950625;28;20027;-57
2023/03/18 08:52:57;;;;;;;84.72;8.50;;;;;;;;;;4952491;28;20363;-57
2023/03/18 08:55:26;;;;;;;81.35;8.43;;;;;;;;;;4951658;28;20019;-57
2023/03/18 08:57:52;;;;;;;84.10;8.38;;;;;;;;;;4951863;28;20437;-58
2023/03/18 09:00:17;;;;;;;70.43;7.20;;;;;;;;;;4952053;28;20050;-59
2023/03/18 09:02:43;;;;;;;84.45;7.93;;;;;;;;;;4953499;28;20548;-58
2023/03/18 09:05:08;;;;;;;91.57;8.40;;;;;;;;;;4953227;28;20085;-58
2023/03/18 09:07:33;;;;;;;63.90;7.20;;;;;;;;;;4954071;28;20023;-59
2023/03/18 09:09:58;;;;;;;95.73;8.43;;;;;;;;;;4952789;28;20031;-58
2023/03/18 09:12:24;;;;;;;96.27;8.03;;;;;;;;;;4952468;28;20034;-57
2023/03/18 09:14:49;;;;;;;81.95;8.05;;;;;;;;;;4953080;28;20027;-58
2023/03/18 09:17:14;;;;;;;91.93;7.97;;;;;;;;;;4953369;28;20479;-57
2023/03/18 09:19:40;;;;;;;75.90;7.65;;;;;;;;;;4951851;28;20266;-57
2023/03/18 09:22:05;;;;;;;74.70;7.35;;;;;;;;;;4952704;28;20446;-58
2023/03/18 09:24:30;;;;;;;243.15;19.98;;;;;;;;;;4950353;28;20038;-59
2023/03/18 09:26:56;;;;;;;75.57;7.50;;;;;;;;;;4951480;28;20039;-58
2023/03/18 09:29:22;;;;;;;97.78;8.98;;;;;;;;;;4953523;28;20268;-59
2023/03/18 09:31:48;;;;;;;76.57;7.90;;;;;;;;;;4953799;28;20434;-59
2023/03/18 09:34:13;;;;;;;69.65;8.15;;;;;;;;;;4953571;28;20496;-60
2023/03/18 09:36:38;;;;;;;85.27;8.03;;;;;;;;;;4951047;28;20117;-59
2023/03/18 09:39:05;;;;;;;61.15;7.00;;;;;;;;;;4954253;28;20927;-59
2023/03/18 09:41:31;;;;;;;89.60;7.88;;;;;;;;;;4952452;28;20431;-59
2023/03/18 09:44:12;;;;;;;90.73;7.53;;;;;;;;;;4952361;28;20027;-57
2023/03/18 09:46:53;;;;;;;86.65;7.43;;;;;;;;;;4951590;28;20085;-59
2023/03/18 09:49:21;;;;;;;78.43;6.90;;;;;;;;;;4951441;28;20074;-59
2023/03/18 09:51:52;;;;;;;83.88;7.93;;;;;;;;;;4949807;28;20054;-58
2023/03/18 09:54:22;;;;;;;68.18;6.60;;;;;;;;;;4951158;28;20046;-59
2023/03/18 09:56:50;;;;;;;73.18;6.90;;;;;;;;;;4951976;28;20130;-58
2023/03/18 09:59:19;;;;;;;80.38;7.07;;;;;;;;;;4953449;28;20037;-56
2023/03/18 10:01:46;;;;;;;63.08;6.30;;;;;;;;;;4952145;28;20047;-59
2023/03/18 10:04:14;;;;;;;78.82;6.68;;;;;;;;;;4951978;28;20745;-58
2023/03/18 10:06:41;;;;;;;60.63;6.03;;;;;;;;;;4952982;28;20174;-58
2023/03/18 10:09:12;;;;;;;71.97;6.45;;;;;;;;;;4951943;28;20027;-59
2023/03/18 10:11:40;;;;;;;61.30;5.93;;;;;;;;;;4951605;28;20031;-57
2023/03/18 10:14:06;;;;;;;57.08;5.88;;;;;;;;;;4952601;28;20489;-57
2023/03/18 10:16:35;;;;;;;72.38;6.15;;;;;;;;;;4951540;28;20054;-59
2023/03/18 10:19:02;;;;;;;65.50;6.03;;;;;;;;;;4951683;28;20027;-60
2023/03/18 10:21:30;;;;;;;78.32;6.18;;;;;;;;;;4950566;28;20783;-59
2023/03/18 10:23:56;;;;;;;76.68;6.43;;;;;;;;;;4952052;28;20027;-58
2023/03/18 10:26:51;;;;;;;76.35;6.30;;;;;;;;;;4952768;28;20027;-60
2023/03/18 10:29:36;;;;;;;74.38;5.90;;;;;;;;;;4951064;28;20049;-59
2023/03/18 10:32:19;;;;;;;72.15;6.10;;;;;;;;;;4948644;28;20089;-58
2023/03/18 10:34:45;;;;;;;90.60;6.55;;;;;;;;;;4950859;28;20275;-59
2023/03/18 10:37:16;;;;;;;71.17;5.70;;;;;;;;;;4954512;28;20522;-59
2023/03/18 10:39:44;;;;;;;69.22;5.72;;;;;;;;;;4952175;28;20086;-58
2023/03/18 10:42:18;;;;;;;55.45;4.93;;;;;;;;;;4952256;28;20046;-59
2023/03/18 10:44:44;;;;;;;73.82;5.63;;;;;;;;;;4953349;28;20086;-58
2023/03/18 10:47:20;;;;;;;70.80;5.65;;;;;;;;;;4951055;28;20201;-60
2023/03/18 10:49:49;;;;;;;77.32;5.85;;;;;;;;;;4949883;28;20460;-58
2023/03/18 10:52:27;;;;;;;103.18;7.13;;;;;;;;;;4950914;28;20043;-57
2023/03/18 10:54:52;;;;;;;98.90;6.82;;;;;;;;;;4950325;28;20029;-58
2023/03/18 10:57:20;;;;;;;90.65;6.28;;;;;;;;;;4950015;28;20046;-58
2023/03/18 10:59:46;;;;;;;60.10;4.90;;;;;;;;;;4952218;28;20316;-60
2023/03/18 11:02:38;;;;;;;69.03;5.55;;;;;;;;;;4949215;28;20581;-57
2023/03/18 11:05:21;;;;;;;71.32;5.15;;;;;;;;;;4949746;28;20043;-57
2023/03/18 11:07:54;;;;;;;64.63;5.15;;;;;;;;;;4949427;28;20126;-59
2023/03/18 11:10:23;;;;;;;73.53;5.55;;;;;;;;;;4951511;28;20239;-59
2023/03/18 11:12:49;;;;;;;70.40;5.32;;;;;;;;;;4951243;28;20018;-58
2023/03/18 11:15:18;;;;;;;77.47;5.80;;;;;;;;;;4950913;28;20090;-56
2023/03/18 11:17:47;;;;;;;85.00;5.97;;;;;;;;;;4949792;28;20406;-59
2023/03/18 11:20:15;;;;;;;94.78;6.25;;;;;;;;;;4949241;28;20016;-58
2023/03/18 11:22:44;;;;;;;67.32;5.15;;;;;;;;;;4949782;28;20030;-57
2023/03/18 11:25:10;;;;;;;70.82;5.35;;;;;;;;;;4949994;28;20137;-56
2023/03/18 11:27:39;;;;;;;54.20;4.90;;;;;;;;;;4949553;28;20111;-57
2023/03/18 11:30:14;;;;;;;95.72;6.20;;;;;;;;;;4949657;28;20031;-57
2023/03/18 11:32:49;;;;;;;73.05;5.43;;;;;;;;;;4948969;28;20050;-57
2023/03/18 11:35:18;;;;;;;93.93;6.40;;;;;;;;;;4950171;28;20027;-58
2023/03/18 11:37:45;;;;;;;61.22;5.28;;;;;;;;;;4951003;28;20100;-59
2023/03/18 11:40:14;;;;;;;74.97;5.22;;;;;;;;;;4951965;28;20026;-58
2023/03/18 11:42:42;;;;;;;65.70;5.00;;;;;;;;;;4952253;28;20059;-58
2023/03/18 11:45:28;;;;;;;63.33;4.90;;;;;;;;;;4948459;28;20577;-61
2023/03/18 11:47:53;;;;;;;68.90;5.07;;;;;;;;;;4949047;28;20041;-60
2023/03/18 11:50:20;;;;;;;105.32;6.57;;;;;;;;;;4949643;28;20388;-56
2023/03/18 11:52:45;;;;;;;107.43;6.80;;;;;;;;;;4949263;28;20022;-59
2023/03/18 11:55:24;;;;;;;68.03;5.25;;;;;;;;;;4947971;28;20023;-58
2023/03/18 11:58:00;;;;;;;65.75;4.75;;;;;;;;;;4948697;28;20030;-58
2023/03/18 12:00:26;;;;;;;91.30;6.07;;;;;;;;;;4951085;28;20557;-58
2023/03/18 12:03:09;;;;;;;84.70;5.50;;;;;;;;;;4951111;28;20023;-57
2023/03/18 12:06:00;;;;;;;71.03;5.65;;;;;;;;;;4949979;28;20050;-58
2023/03/18 12:08:25;;;;;;;57.03;4.60;;;;;;;;;;4951274;28;20553;-57
2023/03/18 12:11:11;;;;;;;81.97;5.63;;;;;;;;;;4950872;28;20609;-57
2023/03/18 12:13:39;;;;;;;64.60;4.57;;;;;;;;;;4943342;28;20026;-57
2023/03/18 12:16:17;;;;;;;103.35;6.13;;;;;;;;;;4948976;28;20027;-59
2023/03/18 12:18:46;;;;;;;69.60;4.65;;;;;;;;;;4951862;28;20032;-59
2023/03/18 12:21:18;;;;;;;94.53;5.70;;;;;;;;;;4948931;28;20510;-58
2023/03/18 12:24:06;;;;;;;60.90;4.05;;;;;;;;;;4948302;28;20492;-59
2023/03/18 12:26:39;;;;;;;61.55;4.43;;;;;;;;;;4952182;28;20043;-58
2023/03/18 12:29:08;;;;;;;73.95;5.07;;;;;;;;;;4954263;28;20028;-58
2023/03/18 12:31:36;;;;;;;76.20;4.97;;;;;;;;;;4953435;28;20578;-58
2023/03/18 12:34:03;;;;;;;91.88;5.55;;;;;;;;;;4955785;28;20062;-59
2023/03/18 12:36:28;;;;;;;107.00;6.40;;;;;;;;;;4952522;28;20473;-57
2023/03/18 12:38:54;;;;;;;65.40;4.47;;;;;;;;;;4954831;28;20053;-58
2023/03/18 12:41:20;;;;;;;71.93;4.60;;;;;;;;;;4953291;28;20043;-58
2023/03/18 12:44:04;;;;;;;87.93;5.53;;;;;;;;;;4954551;28;20023;-58
2023/03/18 12:46:32;;;;;;;88.93;5.45;;;;;;;;;;4952988;28;20039;-59
2023/03/18 12:49:03;;;;;;;86.13;5.15;;;;;;;;;;4954296;28;20038;-57
2023/03/18 12:51:31;;;;;;;65.18;4.35;;;;;;;;;;4952425;28;20401;-58
2023/03/18 12:54:03;;;;;;;94.45;5.82;;;;;;;;;;4951849;28;20553;-59
2023/03/18 12:56:29;;;;;;;76.43;4.80;;;;;;;;;;4951899;28;20446;-59
2023/03/18 12:58:59;;;;;;;100.95;5.93;;;;;;;;;;4952040;28;20531;-59
2023/03/18 13:01:30;;;;;;;78.40;5.05;;;;;;;;;;4953247;28;20034;-56
2023/03/18 13:03:58;;;;;;;56.63;4.25;;;;;;;;;;4953890;28;20401;-59
2023/03/18 13:06:29;;;;;;;59.08;4.05;;;;;;;;;;4951562;28;20062;-57
2023/03/18 13:08:54;;;;;;;118.82;6.78;;;;;;;;;;4953088;28;20107;-58
2023/03/18 13:11:28;;;;;;;106.03;6.47;;;;;;;;;;4950874;28;20069;-58
2023/03/18 13:13:55;;;;;;;99.53;6.00;;;;;;;;;;4951798;28;20551;-58
2023/03/18 13:16:22;;;;;;;92.70;5.75;;;;;;;;;;4951011;28;20498;-58
2023/03/18 13:18:49;;;;;;;122.13;7.45;;;;;;;;;;4947403;28;20031;-57
2023/03/18 13:21:16;;;;;;;67.68;4.97;;;;;;;;;;4948346;28;20023;-59
2023/03/18 13:24:01;;;;;;;88.97;5.45;;;;;;;;;;4952031;28;20887;-58
2023/03/18 13:26:43;;;;;;;83.50;5.25;;;;;;;;;;4953540;28;20055;-58
2023/03/18 13:29:21;;;;;;;117.30;6.35;;;;;;;;;;4950370;28;20027;-57
2023/03/18 13:31:51;;;;;;;88.93;5.43;;;;;;;;;;4952107;28;20063;-59
2023/03/18 13:34:16;;;;;;;61.95;4.18;;;;;;;;;;4951503;28;20191;-59
2023/03/18 13:36:51;;;;;;;71.07;4.53;;;;;;;;;;4949248;28;20031;-58
2023/03/18 13:39:16;;;;;;;108.32;5.93;;;;;;;;;;4950806;28;20270;-58
2023/03/18 13:41:56;;;;;;;111.03;6.13;;;;;;;;;;4950680;28;20066;-59
2023/03/18 13:44:42;;;;;;;116.95;6.38;;;;;;;;;;4950005;28;20259;-58
2023/03/18 13:47:13;;;;;;;156.40;7.68;;;;;;;;;;4947670;28;20930;-59
2023/03/18 13:49:38;;;;;;;133.07;6.65;;;;;;;;;;4951498;28;20016;-59
2023/03/18 13:52:19;;;;;;;146.25;7.30;;;;;;;;;;4947227;28;20141;-58
2023/03/18 13:54:45;;;;;;;68.70;4.50;;;;;;;;;;4949804;28;20030;-58
2023/03/18 13:57:36;;;;;;;111.72;6.07;;;;;;;;;;4949333;28;20039;-57
2023/03/18 14:00:21;;;;;;;76.83;4.67;;;;;;;;;;4938808;28;20568;-58
2023/03/18 14:02:59;;;;;;;181.65;8.60;;;;;;;;;;4949333;28;20082;-58
2023/03/18 14:05:30;;;;;;;96.45;5.57;;;;;;;;;;4947099;28;20068;-59
2023/03/18 14:07:56;;;;;;;133.93;6.82;;;;;;;;;;4950030;28;20089;-58
2023/03/18 14:10:22;;;;;;;122.43;6.73;;;;;;;;;;4949607;28;20023;-57
2023/03/18 14:12:48;;;;;;;149.25;7.68;;;;;;;;;;4950060;28;20254;-59
2023/03/18 14:15:13;;;;;;;121.38;6.63;;;;;;;;;;4950522;28;20085;-59
2023/03/18 14:17:57;;;;;;;133.27;7.07;;;;;;;;;;4949610;28;20762;-60
2023/03/18 14:20:22;;;;;;;89.28;5.25;;;;;;;;;;4948993;28;20038;-59
2023/03/18 14:22:51;;;;;;;99.97;5.63;;;;;;;;;;4949578;28;20329;-58
2023/03/18 14:25:16;;;;;;;89.47;5.30;;;;;;;;;;4949040;28;20054;-57